Terminal Aerodrome Forecast
Issued by NWS Spokane, WA

Home | Current Version | Previous Version | Text Only | Print | Product List | Glossary On
Versions: 1 2 3 4 5 6 7 8 9 10 11 12 13 14 15 16 17 18 19 20 21 22 23 24 25 26 27 28 29 30 31 32 33 34 35 36 37 38 39 40 41 42 43
647
FTUS46 KOTX 242332
TAFLWS
TAF
KLWS 242332Z 2500/2524 20012KT P6SM VCSH BKN050 OVC090
     FM250400 22006KT P6SM SCT045 OVC060
     FM250900 21004KT P6SM OVC100
     FM251800 29009G16KT P6SM VCSH BKN040 BKN100
     FM252100 27010G17KT P6SM SCT120 SCT200=

USA.gov is the U.S. government's official web portal to all federal, state and local government web resources and services.